Date,TemperatureHighF,TemperatureAvgF,TemperatureLowF,DewpointHighF,DewpointAvgF,DewpointLowF,HumidityHigh,HumidityAvg,HumidityLow,PressureMaxIn,PressureMinIn,WindSpeedMaxMPH,WindSpeedAvgMPH,GustSpeedMaxMPH,PrecipitationSumIn
2013-3-1,39.2,36.3,32.0,27.4,22.5,17.3,65,57,46,29.91,29.73,16,6,20,0.00
2013-3-2,34.5,30.5,27.7,23.6,16.1,12.4,65,55,44,29.96,29.82,15,7,19,4.88
2013-3-3,37.4,30.8,27.1,17.3,13.2,7.5,62,48,33,29.94,29.81,21,9,27,0.00
2013-3-4,43.2,32.3,24.4,13.9,9.8,5.7,51,39,26,30.06,29.94,21,8,30,0.04
2013-3-5,51.3,41.8,31.8,29.9,15.7,9.9,92,37,23,30.06,29.79,11,4,17,0.02
2013-3-6,39.6,34.9,31.1,32.0,29.8,26.8,95,83,61,30.04,29.68,20,5,26,0.07
2013-3-7,45.0,39.4,35.6,27.2,25.0,22.6,65,56,44,30.19,30.03,18,7,22,0.00
2013-3-8,43.9,37.3,33.4,27.2,24.1,21.0,67,59,50,30.32,30.18,21,10,30,0.02
2013-3-9,69.1,43.6,31.8,26.6,22.2,14.7,66,46,17,30.38,30.21,14,4,18,0.00
2013-3-10,65.3,48.9,28.9,28.6,24.0,20.4,74,41,22,30.29,30.13,8,2,14,0.00
2013-3-11,59.2,50.5,43.0,49.1,35.4,21.2,83,58,33,30.16,29.82,10,3,17,0.00
2013-3-12,56.5,49.0,39.6,52.9,40.5,25.9,99,74,49,29.98,29.73,21,8,29,0.56
2013-3-13,46.2,37.8,29.7,29.7,21.5,12.4,80,53,27,30.09,29.89,22,7,28,0.00
2013-3-14,43.5,34.8,28.6,18.8,13.7,10.5,64,42,28,30.17,30.04,24,10,35,0.15
2013-3-15,59.2,45.3,32.9,33.3,22.3,12.9,61,41,26,30.09,29.74,14,4,20,0.00
2013-3-16,60.4,45.1,35.2,42.4,36.2,32.1,90,72,50,29.92,29.60,8,3,10,0.02
2013-3-17,38.8,35.6,33.1,32.6,26.3,20.4,91,70,51,30.25,29.92,7,2,11,0.00
2013-3-18,35.4,31.5,28.9,31.6,29.4,21.4,99,93,57,30.30,29.88,7,2,12,0.02
2013-3-19,57.7,42.8,31.8,42.2,24.7,7.1,99,60,21,29.93,29.68,26,6,38,0.58
2013-3-20,51.3,41.6,33.3,28.0,12.7,3.8,75,33,22,29.97,29.74,19,8,26,0.00
2013-3-21,33.6,29.1,25.5,26.6,10.0,0.5,75,45,28,29.91,29.79,18,8,24,0.00
2013-3-22,46.2,33.3,26.1,18.7,11.6,5.3,50,41,26,30.01,29.86,18,6,25,0.00
2013-3-23,54.9,40.0,24.1,22.5,17.9,14.7,69,43,22,30.03,29.88,16,4,24,0.00
2013-3-24,40.6,33.3,27.9,31.0,23.5,17.5,99,69,45,30.01,29.63,8,2,11,0.00
2013-3-25,45.5,34.6,30.6,34.8,31.6,17.5,99,89,47,29.90,29.50,8,1,11,6.73
2013-3-26,48.2,39.3,33.1,31.9,27.3,23.5,87,64,43,30.02,29.70,19,7,24,0.05
2013-3-27,46.4,39.4,35.1,34.1,25.8,21.5,77,58,43,30.14,30.01,17,8,25,0.00
2013-3-28,46.0,40.5,37.4,29.4,26.8,23.9,68,58,49,30.25,30.08,17,7,24,0.00
2013-3-29,56.3,45.5,36.7,30.6,25.9,18.0,70,49,24,30.25,30.12,14,3,17,0.00
2013-3-30,63.7,47.5,32.2,28.0,23.4,16.3,70,41,20,30.23,30.05,13,2,17,0.00
2013-3-31,50.4,44.5,40.5,47.3,38.0,25.3,99,80,50,30.09,29.73,5,1,7,0.16